sensor_id;sensor_type;location;lat;lon;timestamp;P1;durP1;ratioP1;P2;durP2;ratioP2
142;SDS011;63667;49.046;8.468;2024-03-02T00:01:06;33.50;;;17.17;;
142;SDS011;63667;49.046;8.468;2024-03-02T00:03:34;34.00;;;16.87;;
142;SDS011;63667;49.046;8.468;2024-03-02T00:06:03;33.63;;;17.07;;
142;SDS011;63667;49.046;8.468;2024-03-02T00:08:31;33.60;;;16.83;;
142;SDS011;63667;49.046;8.468;2024-03-02T00:10:59;30.80;;;16.23;;
142;SDS011;63667;49.046;8.468;2024-03-02T00:13:28;34.50;;;17.57;;
142;SDS011;63667;49.046;8.468;2024-03-02T00:15:59;34.27;;;17.30;;
142;SDS011;63667;49.046;8.468;2024-03-02T00:18:27;32.97;;;16.40;;
142;SDS011;63667;49.046;8.468;2024-03-02T00:20:56;35.30;;;15.90;;
142;SDS011;63667;49.046;8.468;2024-03-02T00:23:24;29.80;;;15.07;;
142;SDS011;63667;49.046;8.468;2024-03-02T00:25:53;32.27;;;15.20;;
142;SDS011;63667;49.046;8.468;2024-03-02T00:28:22;28.53;;;14.03;;
142;SDS011;63667;49.046;8.468;2024-03-02T00:33:32;38.73;;;17.23;;
142;SDS011;63667;49.046;8.468;2024-03-02T00:35:59;37.80;;;17.77;;
142;SDS011;63667;49.046;8.468;2024-03-02T00:38:26;35.07;;;17.83;;
142;SDS011;63667;49.046;8.468;2024-03-02T00:40:54;35.60;;;18.07;;
142;SDS011;63667;49.046;8.468;2024-03-02T00:46:08;40.10;;;18.10;;
142;SDS011;63667;49.046;8.468;2024-03-02T00:48:36;34.10;;;17.53;;
142;SDS011;63667;49.046;8.468;2024-03-02T00:51:03;33.00;;;17.30;;
142;SDS011;63667;49.046;8.468;2024-03-02T00:53:32;33.07;;;17.17;;
142;SDS011;63667;49.046;8.468;2024-03-02T00:55:59;37.20;;;17.10;;
142;SDS011;63667;49.046;8.468;2024-03-02T00:58:28;43.00;;;17.90;;
142;SDS011;63667;49.046;8.468;2024-03-02T01:00:56;35.47;;;16.13;;
142;SDS011;63667;49.046;8.468;2024-03-02T01:03:24;35.83;;;16.60;;
142;SDS011;63667;49.046;8.468;2024-03-02T01:05:51;38.00;;;17.53;;
142;SDS011;63667;49.046;8.468;2024-03-02T01:08:19;36.40;;;18.07;;
142;SDS011;63667;49.046;8.468;2024-03-02T01:10:47;35.23;;;18.17;;
142;SDS011;63667;49.046;8.468;2024-03-02T01:13:14;34.90;;;17.70;;
142;SDS011;63667;49.046;8.468;2024-03-02T01:15:41;38.90;;;18.10;;
142;SDS011;63667;49.046;8.468;2024-03-02T01:18:09;38.93;;;17.20;;
142;SDS011;63667;49.046;8.468;2024-03-02T01:20:37;34.17;;;17.57;;
142;SDS011;63667;49.046;8.468;2024-03-02T01:23:05;39.07;;;19.20;;
142;SDS011;63667;49.046;8.468;2024-03-02T01:25:33;36.13;;;17.60;;
142;SDS011;63667;49.046;8.468;2024-03-02T01:28:01;42.20;;;19.30;;
142;SDS011;63667;49.046;8.468;2024-03-02T01:30:30;39.70;;;16.80;;
142;SDS011;63667;49.046;8.468;2024-03-02T01:32:57;35.23;;;16.37;;
142;SDS011;63667;49.046;8.468;2024-03-02T01:35:26;36.00;;;16.63;;
142;SDS011;63667;49.046;8.468;2024-03-02T01:37:56;35.80;;;16.20;;
142;SDS011;63667;49.046;8.468;2024-03-02T01:40:23;36.57;;;18.17;;
142;SDS011;63667;49.046;8.468;2024-03-02T01:42:54;32.43;;;16.67;;
142;SDS011;63667;49.046;8.468;2024-03-02T01:45:21;32.00;;;16.40;;
142;SDS011;63667;49.046;8.468;2024-03-02T01:47:49;46.07;;;18.03;;
142;SDS011;63667;49.046;8.468;2024-03-02T01:50:27;33.57;;;16.57;;
142;SDS011;63667;49.046;8.468;2024-03-02T01:52:57;31.53;;;17.10;;
142;SDS011;63667;49.046;8.468;2024-03-02T01:55:25;35.00;;;17.00;;
142;SDS011;63667;49.046;8.468;2024-03-02T01:57:56;32.97;;;17.53;;
142;SDS011;63667;49.046;8.468;2024-03-02T02:00:23;39.07;;;17.87;;
142;SDS011;63667;49.046;8.468;2024-03-02T02:02:52;34.00;;;16.47;;
142;SDS011;63667;49.046;8.468;2024-03-02T02:05:20;36.23;;;16.33;;
142;SDS011;63667;49.046;8.468;2024-03-02T02:07:47;37.40;;;17.53;;
142;SDS011;63667;49.046;8.468;2024-03-02T02:10:14;33.53;;;16.40;;
142;SDS011;63667;49.046;8.468;2024-03-02T02:12:42;31.57;;;16.10;;
142;SDS011;63667;49.046;8.468;2024-03-02T02:15:23;30.17;;;15.67;;
142;SDS011;63667;49.046;8.468;2024-03-02T02:17:53;30.50;;;15.60;;
142;SDS011;63667;49.046;8.468;2024-03-02T02:20:21;28.70;;;15.73;;
142;SDS011;63667;49.046;8.468;2024-03-02T02:23:07;28.53;;;15.40;;
142;SDS011;63667;49.046;8.468;2024-03-02T02:25:39;41.57;;;16.33;;
142;SDS011;63667;49.046;8.468;2024-03-02T02:28:08;32.70;;;16.03;;
142;SDS011;63667;49.046;8.468;2024-03-02T02:30:35;33.80;;;15.80;;
142;SDS011;63667;49.046;8.468;2024-03-02T02:33:03;33.40;;;16.30;;
142;SDS011;63667;49.046;8.468;2024-03-02T02:35:31;29.47;;;16.00;;
142;SDS011;63667;49.046;8.468;2024-03-02T02:37:58;35.40;;;16.90;;
142;SDS011;63667;49.046;8.468;2024-03-02T02:40:27;30.50;;;15.60;;
142;SDS011;63667;49.046;8.468;2024-03-02T02:42:56;31.70;;;16.23;;
142;SDS011;63667;49.046;8.468;2024-03-02T02:45:25;35.70;;;16.57;;
142;SDS011;63667;49.046;8.468;2024-03-02T02:47:53;33.10;;;16.17;;
142;SDS011;63667;49.046;8.468;2024-03-02T02:50:20;29.27;;;15.30;;
142;SDS011;63667;49.046;8.468;2024-03-02T02:52:47;30.20;;;15.17;;
142;SDS011;63667;49.046;8.468;2024-03-02T02:55:14;33.07;;;15.43;;
142;SDS011;63667;49.046;8.468;2024-03-02T02:57:42;32.27;;;15.27;;
142;SDS011;63667;49.046;8.468;2024-03-02T03:00:10;27.10;;;14.90;;
142;SDS011;63667;49.046;8.468;2024-03-02T03:02:43;30.00;;;14.93;;
142;SDS011;63667;49.046;8.468;2024-03-02T03:05:12;31.20;;;14.53;;
142;SDS011;63667;49.046;8.468;2024-03-02T03:07:40;28.83;;;14.27;;
142;SDS011;63667;49.046;8.468;2024-03-02T03:10:08;30.50;;;14.93;;
142;SDS011;63667;49.046;8.468;2024-03-02T03:12:35;24.60;;;14.40;;
142;SDS011;63667;49.046;8.468;2024-03-02T03:15:02;28.03;;;14.23;;
142;SDS011;63667;49.046;8.468;2024-03-02T03:17:30;25.60;;;13.07;;
142;SDS011;63667;49.046;8.468;2024-03-02T03:19:58;27.80;;;13.87;;
142;SDS011;63667;49.046;8.468;2024-03-02T03:22:26;26.40;;;13.63;;
142;SDS011;63667;49.046;8.468;2024-03-02T03:24:54;27.83;;;14.47;;
142;SDS011;63667;49.046;8.468;2024-03-02T03:27:22;28.07;;;14.10;;
142;SDS011;63667;49.046;8.468;2024-03-02T03:29:49;35.90;;;15.10;;
142;SDS011;63667;49.046;8.468;2024-03-02T03:32:15;29.60;;;15.77;;
142;SDS011;63667;49.046;8.468;2024-03-02T03:34:42;34.80;;;15.50;;
142;SDS011;63667;49.046;8.468;2024-03-02T03:37:11;31.30;;;14.73;;
142;SDS011;63667;49.046;8.468;2024-03-02T03:39:38;27.17;;;14.70;;
142;SDS011;63667;49.046;8.468;2024-03-02T03:42:07;30.00;;;14.60;;
142;SDS011;63667;49.046;8.468;2024-03-02T03:44:34;28.70;;;14.50;;
142;SDS011;63667;49.046;8.468;2024-03-02T03:47:02;29.33;;;13.90;;
142;SDS011;63667;49.046;8.468;2024-03-02T03:49:29;28.57;;;14.90;;
142;SDS011;63667;49.046;8.468;2024-03-02T03:51:57;30.03;;;15.07;;
142;SDS011;63667;49.046;8.468;2024-03-02T03:54:26;27.17;;;14.37;;
142;SDS011;63667;49.046;8.468;2024-03-02T03:56:53;37.07;;;14.83;;
142;SDS011;63667;49.046;8.468;2024-03-02T03:59:22;27.37;;;14.03;;
142;SDS011;63667;49.046;8.468;2024-03-02T04:01:49;26.30;;;13.83;;
142;SDS011;63667;49.046;8.468;2024-03-02T04:04:16;23.00;;;13.13;;
142;SDS011;63667;49.046;8.468;2024-03-02T04:06:43;28.30;;;14.30;;
142;SDS011;63667;49.046;8.468;2024-03-02T04:09:11;30.23;;;13.97;;
142;SDS011;63667;49.046;8.468;2024-03-02T04:11:38;26.83;;;14.07;;
142;SDS011;63667;49.046;8.468;2024-03-02T04:14:06;25.23;;;14.17;;
142;SDS011;63667;49.046;8.468;2024-03-02T04:16:34;30.33;;;13.93;;
142;SDS011;63667;49.046;8.468;2024-03-02T04:19:02;21.50;;;12.50;;
142;SDS011;63667;49.046;8.468;2024-03-02T04:21:30;22.77;;;12.20;;
142;SDS011;63667;49.046;8.468;2024-03-02T04:23:58;26.50;;;13.10;;
142;SDS011;63667;49.046;8.468;2024-03-02T04:26:25;30.53;;;12.07;;
142;SDS011;63667;49.046;8.468;2024-03-02T04:28:55;30.60;;;14.30;;
142;SDS011;63667;49.046;8.468;2024-03-02T04:31:22;32.03;;;13.50;;
142;SDS011;63667;49.046;8.468;2024-03-02T04:33:50;33.70;;;13.90;;
142;SDS011;63667;49.046;8.468;2024-03-02T04:36:18;24.60;;;13.07;;
142;SDS011;63667;49.046;8.468;2024-03-02T04:38:46;31.20;;;14.13;;
142;SDS011;63667;49.046;8.468;2024-03-02T04:41:14;25.80;;;13.10;;
142;SDS011;63667;49.046;8.468;2024-03-02T04:43:43;25.67;;;13.07;;
142;SDS011;63667;49.046;8.468;2024-03-02T04:46:10;24.50;;;12.60;;
142;SDS011;63667;49.046;8.468;2024-03-02T04:48:38;28.50;;;12.73;;
142;SDS011;63667;49.046;8.468;2024-03-02T04:51:05;25.20;;;12.27;;
142;SDS011;63667;49.046;8.468;2024-03-02T04:53:32;24.90;;;12.87;;
142;SDS011;63667;49.046;8.468;2024-03-02T04:56:00;24.40;;;12.43;;
142;SDS011;63667;49.046;8.468;2024-03-02T04:58:46;24.30;;;12.67;;
142;SDS011;63667;49.046;8.468;2024-03-02T05:01:15;25.03;;;13.57;;
142;SDS011;63667;49.046;8.468;2024-03-02T05:03:43;26.87;;;13.87;;
142;SDS011;63667;49.046;8.468;2024-03-02T05:06:11;28.90;;;15.60;;
142;SDS011;63667;49.046;8.468;2024-03-02T05:08:39;29.63;;;13.30;;
142;SDS011;63667;49.046;8.468;2024-03-02T05:11:07;25.97;;;13.73;;
142;SDS011;63667;49.046;8.468;2024-03-02T05:13:53;24.10;;;12.37;;
142;SDS011;63667;49.046;8.468;2024-03-02T05:16:20;21.13;;;11.17;;
142;SDS011;63667;49.046;8.468;2024-03-02T05:18:48;24.83;;;13.10;;
142;SDS011;63667;49.046;8.468;2024-03-02T05:21:16;24.00;;;12.10;;
142;SDS011;63667;49.046;8.468;2024-03-02T05:23:43;25.60;;;12.67;;
142;SDS011;63667;49.046;8.468;2024-03-02T05:26:10;24.37;;;12.00;;
142;SDS011;63667;49.046;8.468;2024-03-02T05:28:39;28.50;;;13.63;;
142;SDS011;63667;49.046;8.468;2024-03-02T05:31:06;25.00;;;12.30;;
142;SDS011;63667;49.046;8.468;2024-03-02T05:33:33;26.70;;;11.40;;
142;SDS011;63667;49.046;8.468;2024-03-02T05:36:01;29.00;;;12.13;;
142;SDS011;63667;49.046;8.468;2024-03-02T05:38:29;32.50;;;13.40;;
142;SDS011;63667;49.046;8.468;2024-03-02T05:40:57;25.10;;;12.20;;
142;SDS011;63667;49.046;8.468;2024-03-02T05:43:24;22.70;;;11.47;;
142;SDS011;63667;49.046;8.468;2024-03-02T05:45:52;27.17;;;12.13;;
142;SDS011;63667;49.046;8.468;2024-03-02T05:48:19;23.63;;;12.37;;
142;SDS011;63667;49.046;8.468;2024-03-02T05:50:46;22.90;;;12.30;;
142;SDS011;63667;49.046;8.468;2024-03-02T05:53:14;29.07;;;12.90;;
142;SDS011;63667;49.046;8.468;2024-03-02T05:55:41;25.13;;;12.83;;
142;SDS011;63667;49.046;8.468;2024-03-02T05:58:11;32.93;;;14.17;;
142;SDS011;63667;49.046;8.468;2024-03-02T06:00:51;27.03;;;13.33;;
142;SDS011;63667;49.046;8.468;2024-03-02T06:03:20;27.30;;;13.50;;
142;SDS011;63667;49.046;8.468;2024-03-02T06:05:47;24.50;;;13.00;;
142;SDS011;63667;49.046;8.468;2024-03-02T06:08:15;25.80;;;12.60;;
142;SDS011;63667;49.046;8.468;2024-03-02T06:10:43;25.90;;;12.40;;
142;SDS011;63667;49.046;8.468;2024-03-02T06:13:10;25.77;;;12.97;;
142;SDS011;63667;49.046;8.468;2024-03-02T06:15:38;32.73;;;13.87;;
142;SDS011;63667;49.046;8.468;2024-03-02T06:18:06;31.17;;;12.77;;
142;SDS011;63667;49.046;8.468;2024-03-02T06:20:33;26.73;;;12.60;;
142;SDS011;63667;49.046;8.468;2024-03-02T06:23:01;27.40;;;12.63;;
142;SDS011;63667;49.046;8.468;2024-03-02T06:25:29;27.10;;;13.20;;
142;SDS011;63667;49.046;8.468;2024-03-02T06:27:56;24.70;;;13.10;;
142;SDS011;63667;49.046;8.468;2024-03-02T06:30:24;23.23;;;12.00;;
142;SDS011;63667;49.046;8.468;2024-03-02T06:32:51;27.27;;;12.53;;
142;SDS011;63667;49.046;8.468;2024-03-02T06:35:18;22.23;;;11.77;;
142;SDS011;63667;49.046;8.468;2024-03-02T06:37:45;22.90;;;11.93;;
142;SDS011;63667;49.046;8.468;2024-03-02T06:40:13;27.20;;;13.37;;
142;SDS011;63667;49.046;8.468;2024-03-02T06:42:40;23.37;;;13.10;;
142;SDS011;63667;49.046;8.468;2024-03-02T06:45:08;31.63;;;13.00;;
142;SDS011;63667;49.046;8.468;2024-03-02T06:47:35;29.57;;;13.73;;
142;SDS011;63667;49.046;8.468;2024-03-02T06:50:03;21.93;;;11.60;;
142;SDS011;63667;49.046;8.468;2024-03-02T06:52:32;27.40;;;13.07;;
142;SDS011;63667;49.046;8.468;2024-03-02T06:55:00;23.87;;;11.87;;
142;SDS011;63667;49.046;8.468;2024-03-02T06:57:28;24.90;;;12.87;;
142;SDS011;63667;49.046;8.468;2024-03-02T06:59:55;26.70;;;13.30;;
142;SDS011;63667;49.046;8.468;2024-03-02T07:02:25;27.70;;;14.47;;
142;SDS011;63667;49.046;8.468;2024-03-02T07:04:55;25.53;;;13.10;;
142;SDS011;63667;49.046;8.468;2024-03-02T07:07:23;29.63;;;13.20;;
142;SDS011;63667;49.046;8.468;2024-03-02T07:09:50;24.23;;;12.10;;
142;SDS011;63667;49.046;8.468;2024-03-02T07:12:18;22.37;;;11.70;;
142;SDS011;63667;49.046;8.468;2024-03-02T07:14:45;21.20;;;11.40;;
142;SDS011;63667;49.046;8.468;2024-03-02T07:17:28;25.20;;;12.90;;
142;SDS011;63667;49.046;8.468;2024-03-02T07:19:55;28.13;;;12.87;;
142;SDS011;63667;49.046;8.468;2024-03-02T07:22:23;23.80;;;12.27;;
142;SDS011;63667;49.046;8.468;2024-03-02T07:24:50;21.40;;;12.57;;
142;SDS011;63667;49.046;8.468;2024-03-02T07:27:18;24.60;;;13.73;;
142;SDS011;63667;49.046;8.468;2024-03-02T07:29:45;28.37;;;14.10;;
142;SDS011;63667;49.046;8.468;2024-03-02T07:32:13;27.10;;;13.50;;
142;SDS011;63667;49.046;8.468;2024-03-02T07:34:41;24.87;;;13.03;;
142;SDS011;63667;49.046;8.468;2024-03-02T07:37:09;32.33;;;13.07;;
142;SDS011;63667;49.046;8.468;2024-03-02T07:39:37;25.97;;;13.67;;
142;SDS011;63667;49.046;8.468;2024-03-02T07:42:05;36.20;;;15.93;;
142;SDS011;63667;49.046;8.468;2024-03-02T07:44:33;31.10;;;15.73;;
142;SDS011;63667;49.046;8.468;2024-03-02T07:47:02;31.03;;;12.17;;
142;SDS011;63667;49.046;8.468;2024-03-02T07:49:29;21.67;;;11.33;;
142;SDS011;63667;49.046;8.468;2024-03-02T07:51:57;20.90;;;10.80;;
142;SDS011;63667;49.046;8.468;2024-03-02T07:54:24;16.57;;;9.57;;
142;SDS011;63667;49.046;8.468;2024-03-02T07:56:53;16.50;;;9.47;;
142;SDS011;63667;49.046;8.468;2024-03-02T07:59:21;59.33;;;11.00;;
142;SDS011;63667;49.046;8.468;2024-03-02T08:01:48;17.53;;;9.77;;
142;SDS011;63667;49.046;8.468;2024-03-02T08:04:19;20.20;;;9.53;;
142;SDS011;63667;49.046;8.468;2024-03-02T08:06:46;15.40;;;9.23;;
142;SDS011;63667;49.046;8.468;2024-03-02T08:09:14;22.40;;;9.27;;
142;SDS011;63667;49.046;8.468;2024-03-02T08:11:42;15.93;;;8.60;;
142;SDS011;63667;49.046;8.468;2024-03-02T08:14:09;16.27;;;9.17;;
142;SDS011;63667;49.046;8.468;2024-03-02T08:16:37;13.30;;;8.80;;
142;SDS011;63667;49.046;8.468;2024-03-02T08:19:04;15.63;;;8.90;;
142;SDS011;63667;49.046;8.468;2024-03-02T08:21:32;19.13;;;9.77;;
142;SDS011;63667;49.046;8.468;2024-03-02T08:24:01;13.80;;;8.73;;
142;SDS011;63667;49.046;8.468;2024-03-02T08:26:28;18.17;;;8.67;;
142;SDS011;63667;49.046;8.468;2024-03-02T08:28:58;17.00;;;8.83;;
142;SDS011;63667;49.046;8.468;2024-03-02T08:31:27;17.00;;;8.37;;
142;SDS011;63667;49.046;8.468;2024-03-02T08:33:54;21.67;;;8.90;;
142;SDS011;63667;49.046;8.468;2024-03-02T08:36:26;15.10;;;8.67;;
142;SDS011;63667;49.046;8.468;2024-03-02T08:38:53;14.70;;;7.40;;
142;SDS011;63667;49.046;8.468;2024-03-02T08:41:21;9.70;;;6.07;;
142;SDS011;63667;49.046;8.468;2024-03-02T08:43:49;17.20;;;7.37;;
142;SDS011;63667;49.046;8.468;2024-03-02T08:46:17;14.30;;;7.80;;
142;SDS011;63667;49.046;8.468;2024-03-02T08:48:45;12.03;;;7.50;;
142;SDS011;63667;49.046;8.468;2024-03-02T08:51:12;12.90;;;7.10;;
142;SDS011;63667;49.046;8.468;2024-03-02T08:53:40;8.77;;;6.67;;
142;SDS011;63667;49.046;8.468;2024-03-02T08:56:08;11.10;;;6.80;;
142;SDS011;63667;49.046;8.468;2024-03-02T08:58:38;12.83;;;6.67;;
142;SDS011;63667;49.046;8.468;2024-03-02T09:01:10;12.53;;;7.00;;
142;SDS011;63667;49.046;8.468;2024-03-02T09:03:38;11.47;;;6.10;;
142;SDS011;63667;49.046;8.468;2024-03-02T09:06:06;6.87;;;5.10;;
142;SDS011;63667;49.046;8.468;2024-03-02T09:08:34;8.00;;;5.23;;
142;SDS011;63667;49.046;8.468;2024-03-02T09:11:03;7.03;;;4.70;;
142;SDS011;63667;49.046;8.468;2024-03-02T09:13:31;10.60;;;6.03;;
142;SDS011;63667;49.046;8.468;2024-03-02T09:15:58;10.97;;;6.27;;
142;SDS011;63667;49.046;8.468;2024-03-02T09:18:26;10.83;;;6.20;;
142;SDS011;63667;49.046;8.468;2024-03-02T09:20:54;14.13;;;6.90;;
142;SDS011;63667;49.046;8.468;2024-03-02T09:23:22;15.03;;;6.73;;
142;SDS011;63667;49.046;8.468;2024-03-02T09:25:49;12.83;;;7.20;;
142;SDS011;63667;49.046;8.468;2024-03-02T09:28:17;12.80;;;8.20;;
142;SDS011;63667;49.046;8.468;2024-03-02T09:30:44;15.80;;;7.90;;
142;SDS011;63667;49.046;8.468;2024-03-02T09:33:12;14.53;;;7.30;;
142;SDS011;63667;49.046;8.468;2024-03-02T09:35:40;9.83;;;6.00;;
142;SDS011;63667;49.046;8.468;2024-03-02T09:38:08;9.83;;;6.70;;
142;SDS011;63667;49.046;8.468;2024-03-02T09:40:35;9.90;;;6.00;;
142;SDS011;63667;49.046;8.468;2024-03-02T09:43:03;9.47;;;6.20;;
142;SDS011;63667;49.046;8.468;2024-03-02T09:45:31;5.93;;;5.10;;
142;SDS011;63667;49.046;8.468;2024-03-02T09:47:59;8.23;;;5.60;;
142;SDS011;63667;49.046;8.468;2024-03-02T09:50:27;8.40;;;5.90;;
142;SDS011;63667;49.046;8.468;2024-03-02T09:52:53;10.30;;;5.70;;
142;SDS011;63667;49.046;8.468;2024-03-02T09:55:22;11.10;;;6.13;;
142;SDS011;63667;49.046;8.468;2024-03-02T09:57:49;9.37;;;6.00;;
142;SDS011;63667;49.046;8.468;2024-03-02T10:00:17;9.33;;;6.50;;
142;SDS011;63667;49.046;8.468;2024-03-02T10:02:45;11.17;;;6.60;;
142;SDS011;63667;49.046;8.468;2024-03-02T10:05:23;10.47;;;6.23;;
142;SDS011;63667;49.046;8.468;2024-03-02T10:08:08;7.90;;;6.03;;
142;SDS011;63667;49.046;8.468;2024-03-02T10:10:41;9.53;;;6.07;;
142;SDS011;63667;49.046;8.468;2024-03-02T10:13:10;10.27;;;5.87;;
142;SDS011;63667;49.046;8.468;2024-03-02T10:15:37;11.00;;;6.53;;
142;SDS011;63667;49.046;8.468;2024-03-02T10:18:09;8.97;;;6.07;;
142;SDS011;63667;49.046;8.468;2024-03-02T10:21:04;17.40;;;6.00;;
142;SDS011;63667;49.046;8.468;2024-03-02T10:23:40;8.40;;;6.07;;
142;SDS011;63667;49.046;8.468;2024-03-02T10:26:25;10.30;;;6.10;;
142;SDS011;63667;49.046;8.468;2024-03-02T10:28:57;8.37;;;5.53;;
142;SDS011;63667;49.046;8.468;2024-03-02T10:31:25;10.40;;;5.60;;
142;SDS011;63667;49.046;8.468;2024-03-02T10:33:54;9.93;;;6.50;;
142;SDS011;63667;49.046;8.468;2024-03-02T10:36:22;13.03;;;6.20;;
142;SDS011;63667;49.046;8.468;2024-03-02T10:38:51;8.43;;;5.83;;
142;SDS011;63667;49.046;8.468;2024-03-02T10:41:24;7.97;;;5.73;;
142;SDS011;63667;49.046;8.468;2024-03-02T10:43:52;8.10;;;5.73;;
142;SDS011;63667;49.046;8.468;2024-03-02T10:46:40;7.23;;;5.40;;
142;SDS011;63667;49.046;8.468;2024-03-02T10:49:07;10.27;;;6.27;;
142;SDS011;63667;49.046;8.468;2024-03-02T10:51:35;11.20;;;6.00;;
142;SDS011;63667;49.046;8.468;2024-03-02T10:54:03;10.20;;;6.20;;
142;SDS011;63667;49.046;8.468;2024-03-02T10:56:31;9.67;;;6.90;;
142;SDS011;63667;49.046;8.468;2024-03-02T10:59:42;14.50;;;7.57;;
142;SDS011;63667;49.046;8.468;2024-03-02T11:01:58;11.40;;;7.80;;
142;SDS011;63667;49.046;8.468;2024-03-02T11:04:26;12.13;;;7.70;;
142;SDS011;63667;49.046;8.468;2024-03-02T11:07:13;10.13;;;7.57;;
142;SDS011;63667;49.046;8.468;2024-03-02T11:09:45;12.83;;;8.13;;
142;SDS011;63667;49.046;8.468;2024-03-02T11:12:28;10.77;;;8.10;;
142;SDS011;63667;49.046;8.468;2024-03-02T11:14:56;14.53;;;7.07;;
142;SDS011;63667;49.046;8.468;2024-03-02T11:17:24;8.60;;;6.33;;
142;SDS011;63667;49.046;8.468;2024-03-02T11:19:52;8.00;;;6.00;;
142;SDS011;63667;49.046;8.468;2024-03-02T11:22:20;7.07;;;5.40;;
142;SDS011;63667;49.046;8.468;2024-03-02T11:24:50;6.00;;;4.27;;
142;SDS011;63667;49.046;8.468;2024-03-02T11:32:57;5.37;;;4.60;;
142;SDS011;63667;49.046;8.468;2024-03-02T11:35:25;7.03;;;4.50;;
142;SDS011;63667;49.046;8.468;2024-03-02T11:37:52;4.70;;;4.27;;
142;SDS011;63667;49.046;8.468;2024-03-02T11:40:23;5.60;;;4.10;;
142;SDS011;63667;49.046;8.468;2024-03-02T11:42:51;5.03;;;4.40;;
142;SDS011;63667;49.046;8.468;2024-03-02T11:45:22;5.80;;;4.67;;
142;SDS011;63667;49.046;8.468;2024-03-02T11:47:50;6.53;;;4.73;;
142;SDS011;63667;49.046;8.468;2024-03-02T11:50:29;6.13;;;4.63;;
142;SDS011;63667;49.046;8.468;2024-03-02T11:52:59;11.40;;;4.20;;
142;SDS011;63667;49.046;8.468;2024-03-02T11:55:26;4.53;;;4.03;;
142;SDS011;63667;49.046;8.468;2024-03-02T11:57:55;5.07;;;4.20;;
142;SDS011;63667;49.046;8.468;2024-03-02T12:00:23;7.70;;;3.40;;
142;SDS011;63667;49.046;8.468;2024-03-02T12:05:49;5.80;;;4.00;;
142;SDS011;63667;49.046;8.468;2024-03-02T12:08:17;5.20;;;3.60;;
142;SDS011;63667;49.046;8.468;2024-03-02T12:10:55;8.43;;;4.03;;
142;SDS011;63667;49.046;8.468;2024-03-02T12:13:22;8.47;;;4.30;;
142;SDS011;63667;49.046;8.468;2024-03-02T12:15:52;8.50;;;4.73;;
142;SDS011;63667;49.046;8.468;2024-03-02T12:18:24;5.53;;;4.00;;
142;SDS011;63667;49.046;8.468;2024-03-02T12:20:51;5.83;;;4.90;;
142;SDS011;63667;49.046;8.468;2024-03-02T12:23:23;6.03;;;4.50;;
142;SDS011;63667;49.046;8.468;2024-03-02T12:25:50;6.10;;;4.83;;
142;SDS011;63667;49.046;8.468;2024-03-02T12:28:18;8.43;;;5.13;;
142;SDS011;63667;49.046;8.468;2024-03-02T12:30:45;6.57;;;5.30;;
142;SDS011;63667;49.046;8.468;2024-03-02T12:33:13;4.80;;;4.50;;
142;SDS011;63667;49.046;8.468;2024-03-02T12:35:42;4.00;;;3.87;;
142;SDS011;63667;49.046;8.468;2024-03-02T12:38:09;4.37;;;4.10;;
142;SDS011;63667;49.046;8.468;2024-03-02T12:40:37;4.70;;;4.40;;
142;SDS011;63667;49.046;8.468;2024-03-02T12:43:05;4.37;;;4.07;;
142;SDS011;63667;49.046;8.468;2024-03-02T12:45:33;5.93;;;4.27;;
142;SDS011;63667;49.046;8.468;2024-03-02T12:48:00;4.00;;;3.80;;
142;SDS011;63667;49.046;8.468;2024-03-02T12:50:28;3.77;;;3.57;;
142;SDS011;63667;49.046;8.468;2024-03-02T12:52:56;4.23;;;3.97;;
142;SDS011;63667;49.046;8.468;2024-03-02T12:55:23;4.10;;;3.90;;
142;SDS011;63667;49.046;8.468;2024-03-02T12:57:51;5.97;;;4.20;;
142;SDS011;63667;49.046;8.468;2024-03-02T13:00:19;3.83;;;3.43;;
142;SDS011;63667;49.046;8.468;2024-03-02T13:02:47;4.33;;;4.10;;
142;SDS011;63667;49.046;8.468;2024-03-02T13:05:17;4.90;;;3.60;;
142;SDS011;63667;49.046;8.468;2024-03-02T13:07:44;3.77;;;3.60;;
142;SDS011;63667;49.046;8.468;2024-03-02T13:10:12;4.27;;;3.77;;
142;SDS011;63667;49.046;8.468;2024-03-02T13:12:39;5.03;;;3.83;;
142;SDS011;63667;49.046;8.468;2024-03-02T13:15:07;3.73;;;3.50;;
142;SDS011;63667;49.046;8.468;2024-03-02T13:17:35;5.27;;;3.67;;
142;SDS011;63667;49.046;8.468;2024-03-02T13:20:03;3.50;;;3.27;;
142;SDS011;63667;49.046;8.468;2024-03-02T13:22:34;10.10;;;3.50;;
142;SDS011;63667;49.046;8.468;2024-03-02T13:25:02;4.37;;;3.77;;
142;SDS011;63667;49.046;8.468;2024-03-02T13:27:30;4.17;;;3.50;;
142;SDS011;63667;49.046;8.468;2024-03-02T13:29:58;3.70;;;3.50;;
142;SDS011;63667;49.046;8.468;2024-03-02T13:32:25;6.10;;;3.70;;
142;SDS011;63667;49.046;8.468;2024-03-02T13:34:53;4.13;;;3.80;;
142;SDS011;63667;49.046;8.468;2024-03-02T13:37:20;5.70;;;3.67;;
142;SDS011;63667;49.046;8.468;2024-03-02T13:39:48;4.60;;;4.00;;
142;SDS011;63667;49.046;8.468;2024-03-02T13:42:15;4.00;;;3.90;;
142;SDS011;63667;49.046;8.468;2024-03-02T13:44:44;4.40;;;3.57;;
142;SDS011;63667;49.046;8.468;2024-03-02T13:47:15;4.00;;;3.80;;
142;SDS011;63667;49.046;8.468;2024-03-02T13:49:42;5.30;;;4.10;;
142;SDS011;63667;49.046;8.468;2024-03-02T13:52:12;3.47;;;3.27;;
142;SDS011;63667;49.046;8.468;2024-03-02T13:54:40;5.30;;;3.90;;
142;SDS011;63667;49.046;8.468;2024-03-02T13:57:07;5.03;;;3.30;;
142;SDS011;63667;49.046;8.468;2024-03-02T13:59:36;4.53;;;2.93;;
142;SDS011;63667;49.046;8.468;2024-03-02T14:02:06;4.30;;;3.20;;
142;SDS011;63667;49.046;8.468;2024-03-02T14:04:35;3.60;;;3.10;;
142;SDS011;63667;49.046;8.468;2024-03-02T14:07:03;6.20;;;3.23;;
142;SDS011;63667;49.046;8.468;2024-03-02T14:09:34;3.80;;;2.97;;
142;SDS011;63667;49.046;8.468;2024-03-02T14:12:02;3.13;;;2.90;;
142;SDS011;63667;49.046;8.468;2024-03-02T14:14:29;7.60;;;3.23;;
142;SDS011;63667;49.046;8.468;2024-03-02T14:16:57;3.23;;;2.80;;
142;SDS011;63667;49.046;8.468;2024-03-02T14:19:29;3.03;;;2.90;;
142;SDS011;63667;49.046;8.468;2024-03-02T14:21:56;6.60;;;2.90;;
142;SDS011;63667;49.046;8.468;2024-03-02T14:24:24;2.93;;;2.60;;
142;SDS011;63667;49.046;8.468;2024-03-02T14:26:52;3.93;;;2.93;;
142;SDS011;63667;49.046;8.468;2024-03-02T14:29:23;3.47;;;3.07;;
142;SDS011;63667;49.046;8.468;2024-03-02T14:31:50;4.00;;;3.17;;
142;SDS011;63667;49.046;8.468;2024-03-02T14:34:18;3.50;;;2.97;;
142;SDS011;63667;49.046;8.468;2024-03-02T14:36:46;2.90;;;2.77;;
142;SDS011;63667;49.046;8.468;2024-03-02T14:39:14;3.47;;;2.80;;
142;SDS011;63667;49.046;8.468;2024-03-02T14:41:42;3.40;;;2.77;;
142;SDS011;63667;49.046;8.468;2024-03-02T14:44:11;5.37;;;5.07;;
142;SDS011;63667;49.046;8.468;2024-03-02T14:46:38;3.37;;;2.73;;
142;SDS011;63667;49.046;8.468;2024-03-02T14:49:08;3.47;;;2.80;;
142;SDS011;63667;49.046;8.468;2024-03-02T14:51:36;3.33;;;2.60;;
142;SDS011;63667;49.046;8.468;2024-03-02T14:54:04;3.10;;;2.70;;
142;SDS011;63667;49.046;8.468;2024-03-02T14:56:31;3.73;;;2.77;;
142;SDS011;63667;49.046;8.468;2024-03-02T14:58:59;3.20;;;2.80;;
142;SDS011;63667;49.046;8.468;2024-03-02T15:01:27;3.47;;;2.90;;
142;SDS011;63667;49.046;8.468;2024-03-02T15:03:55;2.90;;;2.57;;
142;SDS011;63667;49.046;8.468;2024-03-02T15:06:22;2.97;;;2.80;;
142;SDS011;63667;49.046;8.468;2024-03-02T15:08:50;3.60;;;2.90;;
142;SDS011;63667;49.046;8.468;2024-03-02T15:11:17;4.70;;;3.03;;
142;SDS011;63667;49.046;8.468;2024-03-02T15:13:45;3.57;;;2.83;;
142;SDS011;63667;49.046;8.468;2024-03-02T15:16:13;11.03;;;3.10;;
142;SDS011;63667;49.046;8.468;2024-03-02T15:18:40;5.50;;;3.33;;
142;SDS011;63667;49.046;8.468;2024-03-02T15:21:09;7.43;;;3.30;;